Time;durP1;ratioP1;P1;durP2;ratioP2;P2;SDS_P1;SDS_P2;PMS_P1;PMS_P2;Temp;Humidity;BMP_temperature;BMP_pressure;BME280_temperature;BME280_humidity;BME280_pressure;Samples;Min_cycle;Max_cycle;Signal;HPM_P1;HPM_P2
2021/03/31 00:00:35;;;;;;;14.48;6.90;;;8.40;99.90;;;;;;5088593;28;20365;-45
2021/03/31 00:03:07;;;;;;;12.02;6.93;;;8.40;99.90;;;;;;5088053;28;20055;-44
2021/03/31 00:05:33;;;;;;;10.10;6.63;;;8.40;99.90;;;;;;5087486;28;20389;-44
2021/03/31 00:07:58;;;;;;;15.85;7.90;;;8.40;99.90;;;;;;5087831;28;20138;-45
2021/03/31 00:10:28;;;;;;;12.05;6.57;;;8.40;99.90;;;;;;5087834;28;20039;-45
2021/03/31 00:12:53;;;;;;;14.13;6.68;;;8.30;99.90;;;;;;5087995;28;20022;-45
2021/03/31 00:15:20;;;;;;;12.27;6.72;;;8.30;99.90;;;;;;5087142;28;20020;-45
2021/03/31 00:17:45;;;;;;;14.07;7.53;;;8.30;99.90;;;;;;5087768;28;20032;-45
2021/03/31 00:20:16;;;;;;;19.42;8.52;;;8.30;99.90;;;;;;5089917;28;20026;-45
2021/03/31 00:22:42;;;;;;;;;;;8.30;99.90;;;;;;5093012;28;20064;-44
2021/03/31 00:25:10;;;;;;;13.88;7.30;;;8.30;99.90;;;;;;5091102;28;19951;-45
2021/03/31 00:27:36;;;;;;;13.88;6.78;;;8.30;99.90;;;;;;5092036;28;20020;-46
2021/03/31 00:30:05;;;;;;;15.05;7.68;;;8.20;99.90;;;;;;5091708;28;20115;-44
2021/03/31 00:32:31;;;;;;;16.45;8.13;;;8.10;99.90;;;;;;5091909;28;20064;-46
2021/03/31 00:34:56;;;;;;;14.93;7.45;;;8.10;99.90;;;;;;5072855;28;20048;-45
2021/03/31 00:37:22;;;;;;;16.90;7.55;;;8.10;99.90;;;;;;5091836;28;20020;-46
2021/03/31 00:39:47;;;;;;;16.50;8.38;;;8.10;99.90;;;;;;5091467;28;20020;-45
2021/03/31 00:42:13;;;;;;;10.57;6.90;;;8.10;99.90;;;;;;5092098;28;20067;-47
2021/03/31 00:44:38;;;;;;;15.32;7.40;;;8.10;99.90;;;;;;5091576;28;20042;-45
2021/03/31 00:47:04;;;;;;;13.77;7.47;;;8.00;99.90;;;;;;5091302;28;20024;-45
2021/03/31 00:49:31;;;;;;;13.25;7.30;;;8.00;99.90;;;;;;5091512;28;20035;-46
2021/03/31 00:51:56;;;;;;;15.15;8.15;;;7.90;99.90;;;;;;5091729;28;20034;-46
2021/03/31 00:54:22;;;;;;;13.60;7.95;;;7.90;99.90;;;;;;5089994;28;20032;-45
2021/03/31 00:56:48;;;;;;;12.52;7.60;;;7.80;99.90;;;;;;5091019;28;20095;-46
2021/03/31 00:59:13;;;;;;;14.27;7.22;;;7.80;99.90;;;;;;5091204;28;20496;-46
2021/03/31 01:01:39;;;;;;;16.50;8.07;;;7.70;99.90;;;;;;5091293;28;20020;-45
2021/03/31 01:04:05;;;;;;;12.73;7.93;;;7.70;99.90;;;;;;5091515;28;20034;-45
2021/03/31 01:06:30;;;;;;;12.75;7.28;;;7.60;99.90;;;;;;5090535;28;20133;-45
2021/03/31 01:08:56;;;;;;;19.70;8.48;;;7.70;99.90;;;;;;5091001;28;20111;-45
2021/03/31 01:11:33;;;;;;;12.85;6.75;;;7.70;99.90;;;;;;5090932;28;20024;-45
2021/03/31 01:14:13;;;;;;;12.98;7.22;;;7.70;99.90;;;;;;5091193;28;20469;-44
2021/03/31 01:16:54;;;;;;;13.98;7.30;;;7.60;99.90;;;;;;5090616;28;20035;-44
2021/03/31 01:19:38;;;;;;;16.00;7.85;;;7.60;99.90;;;;;;5091041;28;20032;-45
2021/03/31 01:22:25;;;;;;;12.48;7.13;;;7.60;99.90;;;;;;5091001;28;20051;-45
2021/03/31 01:25:14;;;;;;;13.48;7.82;;;7.60;99.90;;;;;;5090077;28;20024;-47
2021/03/31 01:28:15;;;;;;;10.77;6.53;;;7.40;99.90;;;;;;5090928;28;20032;-45
2021/03/31 01:31:08;;;;;;;10.52;6.18;;;7.30;99.90;;;;;;5090500;28;20036;-44
2021/03/31 01:33:59;;;;;;;13.13;7.07;;;7.30;99.90;;;;;;5090687;28;20057;-45
2021/03/31 01:36:27;;;;;;;12.52;6.80;;;7.20;99.90;;;;;;5090042;28;20056;-45
2021/03/31 01:38:59;;;;;;;11.85;6.93;;;7.20;99.90;;;;;;5089885;28;20089;-46
2021/03/31 01:41:26;;;;;;;14.07;7.20;;;7.20;99.90;;;;;;5090491;28;20417;-45
2021/03/31 01:43:55;;;;;;;15.50;8.00;;;7.10;99.90;;;;;;5090747;28;20024;-45
2021/03/31 01:46:29;;;;;;;14.30;7.75;;;7.10;99.90;;;;;;5089703;28;20020;-45
2021/03/31 01:48:57;;;;;;;14.13;8.10;;;7.20;99.90;;;;;;5090636;28;20032;-47
2021/03/31 01:51:23;;;;;;;20.67;8.43;;;7.20;99.90;;;;;;5090263;28;20032;-45
2021/03/31 01:53:50;;;;;;;16.70;8.10;;;7.20;99.90;;;;;;5072244;28;20028;-45
2021/03/31 01:56:17;;;;;;;10.02;6.35;;;7.20;99.90;;;;;;5071435;28;20016;-46
2021/03/31 01:58:44;;;;;;;16.50;8.27;;;7.20;99.90;;;;;;5072064;28;20078;-44
2021/03/31 02:01:14;;;;;;;13.77;7.35;;;7.20;99.90;;;;;;5090550;28;20381;-46
2021/03/31 02:03:40;;;;;;;12.93;7.28;;;7.10;99.90;;;;;;5090147;28;20055;-45
2021/03/31 02:06:06;;;;;;;11.07;7.00;;;7.20;99.90;;;;;;5089464;28;20016;-44
2021/03/31 02:08:32;;;;;;;11.32;7.32;;;7.10;99.90;;;;;;5089791;28;20328;-45
2021/03/31 02:10:58;;;;;;;14.68;7.40;;;7.00;99.90;;;;;;5089876;28;20378;-46
2021/03/31 02:13:24;;;;;;;16.13;7.93;;;6.90;99.90;;;;;;5071722;28;20111;-45
2021/03/31 02:15:55;;;;;;;18.88;8.63;;;7.00;99.90;;;;;;5089335;28;20070;-47
2021/03/31 02:18:22;;;;;;;15.45;8.50;;;7.00;99.90;;;;;;5089744;28;20028;-45
2021/03/31 02:20:52;;;;;;;15.95;7.47;;;6.90;99.90;;;;;;5089806;28;20035;-45
2021/03/31 02:23:18;;;;;;;13.15;8.25;;;7.00;99.90;;;;;;5089544;28;20078;-46
2021/03/31 02:25:47;;;;;;;14.77;7.45;;;7.00;99.90;;;;;;5089361;28;20029;-45
2021/03/31 02:28:13;;;;;;;14.20;8.00;;;6.90;99.90;;;;;;5090224;28;20098;-44
2021/03/31 02:30:38;;;;;;;16.25;7.78;;;6.90;99.90;;;;;;5089585;28;20134;-45
2021/03/31 02:33:07;;;;;;;14.45;8.20;;;6.90;99.90;;;;;;5086235;28;20025;-45
2021/03/31 02:35:34;;;;;;;14.73;7.18;;;6.80;99.90;;;;;;5083538;28;20732;-44
2021/03/31 02:38:05;;;;;;;12.57;7.28;;;6.90;99.90;;;;;;5085521;28;20027;-45
2021/03/31 02:40:33;;;;;;;14.77;8.18;;;6.80;99.90;;;;;;5085023;28;20024;-45
2021/03/31 02:43:01;;;;;;;13.60;7.90;;;6.70;99.90;;;;;;5066585;28;20076;-44
2021/03/31 02:45:29;;;;;;;11.57;6.95;;;6.70;99.90;;;;;;5077395;28;20102;-45
2021/03/31 02:47:59;;;;;;;9.93;6.93;;;6.70;99.90;;;;;;5082270;28;20103;-45
2021/03/31 02:50:25;;;;;;;11.48;6.57;;;6.70;99.90;;;;;;5083633;28;20027;-46
2021/03/31 02:52:52;;;;;;;12.55;6.78;;;6.60;99.90;;;;;;5083981;28;20042;-44
2021/03/31 02:55:23;;;;;;;12.68;6.75;;;6.60;99.90;;;;;;5060641;28;20017;-44
2021/03/31 02:57:48;;;;;;;11.75;7.75;;;6.60;99.90;;;;;;5088158;28;20089;-45
2021/03/31 03:00:15;;;;;;;14.18;7.32;;;6.60;99.90;;;;;;5088011;28;20044;-44
2021/03/31 03:02:43;;;;;;;16.25;9.00;;;6.50;99.90;;;;;;5070179;28;20035;-44
2021/03/31 03:05:11;;;;;;;13.73;7.20;;;6.50;99.90;;;;;;5087327;28;20061;-45
2021/03/31 03:07:36;;;;;;;15.27;8.75;;;6.50;99.90;;;;;;5087918;28;20030;-44
2021/03/31 03:10:04;;;;;;;13.07;7.32;;;6.50;99.90;;;;;;5087814;28;20020;-44
2021/03/31 03:12:30;;;;;;;13.70;7.78;;;6.40;99.90;;;;;;5093154;28;20484;-44
2021/03/31 03:14:57;;;;;;;12.30;7.00;;;6.40;99.90;;;;;;5087571;28;20122;-46
2021/03/31 03:17:24;;;;;;;16.67;9.45;;;6.40;99.90;;;;;;5067117;28;20039;-44
2021/03/31 03:19:50;;;;;;;16.67;8.35;;;6.40;99.90;;;;;;5088221;28;20046;-45
2021/03/31 03:22:17;;;;;;;15.18;7.57;;;6.40;99.90;;;;;;5088022;28;20012;-44
2021/03/31 03:24:44;;;;;;;14.90;8.27;;;6.30;99.90;;;;;;5069401;28;20486;-45
2021/03/31 03:27:17;;;;;;;13.25;7.40;;;6.30;99.90;;;;;;5088256;28;20027;-44
2021/03/31 03:29:46;;;;;;;14.27;8.18;;;6.30;99.90;;;;;;5088442;28;20486;-44
2021/03/31 03:32:12;;;;;;;13.50;7.28;;;6.30;99.90;;;;;;5088304;28;20100;-44
2021/03/31 03:34:39;;;;;;;15.75;8.85;;;6.20;99.90;;;;;;5070164;28;20397;-44
2021/03/31 03:37:05;;;;;;;21.38;9.13;;;6.20;99.90;;;;;;5087816;28;20043;-44
2021/03/31 03:39:31;;;;;;;16.40;9.07;;;6.20;99.90;;;;;;5088027;28;20028;-44
2021/03/31 03:41:56;;;;;;;15.15;8.30;;;6.10;99.90;;;;;;5088319;28;20020;-44
2021/03/31 03:44:22;;;;;;;13.25;7.53;;;6.10;99.90;;;;;;5088656;28;20386;-44
2021/03/31 03:46:52;;;;;;;17.10;8.40;;;6.00;99.90;;;;;;5087671;28;20024;-44
2021/03/31 03:49:18;;;;;;;13.45;7.22;;;6.00;99.90;;;;;;5088299;28;20028;-44
2021/03/31 03:51:45;;;;;;;18.98;7.90;;;6.10;99.90;;;;;;5088175;28;20038;-43
2021/03/31 03:54:10;;;;;;;12.60;7.75;;;6.00;99.90;;;;;;5087785;28;20043;-45
2021/03/31 03:56:37;;;;;;;14.80;7.88;;;6.00;99.90;;;;;;5087550;28;20043;-45
2021/03/31 03:59:26;;;;;;;13.20;8.07;;;5.90;99.90;;;;;;5086437;28;20031;-44
2021/03/31 04:01:52;;;;;;;14.85;9.00;;;5.90;99.90;;;;;;5069049;28;20024;-45
2021/03/31 04:04:22;;;;;;;17.50;8.65;;;5.90;99.90;;;;;;5087159;28;20024;-46
2021/03/31 04:06:49;;;;;;;17.23;9.18;;;6.00;99.90;;;;;;5091492;28;20024;-45
2021/03/31 04:09:15;;;;;;;18.25;9.88;;;6.00;99.90;;;;;;5072645;28;20028;-44
2021/03/31 04:11:44;;;;;;;15.95;9.40;;;6.00;99.90;;;;;;5087426;28;20384;-44
2021/03/31 04:14:11;;;;;;;13.88;8.55;;;6.00;99.90;;;;;;5096991;28;20118;-45
2021/03/31 04:16:40;;;;;;;17.08;9.27;;;6.00;99.90;;;;;;5108176;28;20038;-44
2021/03/31 04:19:10;;;;;;;18.55;9.80;;;6.00;99.90;;;;;;5108151;28;20020;-44
2021/03/31 04:21:36;;;;;;;;;;;6.00;99.90;;;;;;5108733;28;20038;-44
2021/03/31 04:24:02;;;;;;;24.75;10.25;;;6.00;99.90;;;;;;5093877;28;19904;-43
2021/03/31 04:26:31;;;;;;;18.55;9.52;;;6.00;99.90;;;;;;5087085;28;20103;-44
2021/03/31 04:28:57;;;;;;;18.63;9.20;;;6.00;99.90;;;;;;5087805;28;20115;-44
2021/03/31 04:31:24;;;;;;;19.00;10.07;;;6.00;99.90;;;;;;5085798;28;20075;-45
2021/03/31 04:33:51;;;;;;;16.98;8.57;;;6.00;99.90;;;;;;5095531;28;20032;-44
2021/03/31 04:36:18;;;;;;;22.75;9.93;;;5.90;99.90;;;;;;5096889;28;20047;-46
2021/03/31 04:38:49;;;;;;;16.85;9.00;;;5.90;99.90;;;;;;5097447;28;20028;-45
2021/03/31 04:41:15;;;;;;;20.48;9.82;;;5.80;99.90;;;;;;5094324;28;20502;-45
2021/03/31 04:43:40;;;;;;;18.13;8.55;;;5.90;99.90;;;;;;5096851;28;20046;-44
2021/03/31 04:46:09;;;;;;;18.02;8.68;;;5.80;99.90;;;;;;5097522;28;20066;-45
2021/03/31 04:48:39;;;;;;;15.65;9.45;;;5.80;99.90;;;;;;5096660;28;20424;-45
2021/03/31 04:51:06;;;;;;;16.92;8.95;;;5.80;99.90;;;;;;5080967;28;20655;-45
2021/03/31 04:53:31;;;;;;;17.25;9.07;;;5.70;99.90;;;;;;5079693;28;20115;-44
2021/03/31 04:55:57;;;;;;;18.40;9.60;;;5.70;99.90;;;;;;5086632;28;20103;-44
2021/03/31 04:58:23;;;;;;;18.33;9.10;;;5.70;99.90;;;;;;5087339;28;20024;-45
2021/03/31 05:00:49;;;;;;;25.92;9.25;;;5.80;99.90;;;;;;5069380;28;20560;-45
2021/03/31 05:03:14;;;;;;;15.98;8.40;;;5.80;99.90;;;;;;5087327;28;20024;-45
2021/03/31 05:05:40;;;;;;;21.80;10.05;;;5.70;99.90;;;;;;5079173;28;20481;-44
2021/03/31 05:08:07;;;;;;;17.60;8.88;;;5.60;99.90;;;;;;5072891;28;20027;-44
2021/03/31 05:10:33;;;;;;;16.10;8.23;;;5.60;99.90;;;;;;5091012;28;20020;-44
2021/03/31 05:12:59;;;;;;;16.92;8.70;;;5.60;99.90;;;;;;5091196;28;20020;-44
2021/03/31 05:15:24;;;;;;;17.58;8.85;;;5.70;99.90;;;;;;5090473;28;20417;-44
2021/03/31 05:17:50;;;;;;;15.32;8.65;;;5.60;99.90;;;;;;5091173;28;20119;-45
2021/03/31 05:20:16;;;;;;;12.15;7.18;;;5.60;99.90;;;;;;5091102;28;20039;-45
2021/03/31 05:22:42;;;;;;;15.35;9.07;;;5.60;99.90;;;;;;5090902;28;20028;-45
2021/03/31 05:25:08;;;;;;;20.83;10.38;;;5.60;99.90;;;;;;5090024;28;20072;-45
2021/03/31 05:27:34;;;;;;;15.73;8.93;;;5.60;99.90;;;;;;5090531;28;20051;-45
2021/03/31 05:30:00;;;;;;;17.98;9.02;;;5.60;99.90;;;;;;5090519;28;20370;-45
2021/03/31 05:32:26;;;;;;;19.58;8.93;;;5.60;99.90;;;;;;5090732;28;20032;-46
2021/03/31 05:34:52;;;;;;;17.40;9.00;;;5.70;99.90;;;;;;5072075;28;20028;-46
2021/03/31 05:37:18;;;;;;;26.17;10.57;;;5.70;99.90;;;;;;5090930;28;20376;-45
2021/03/31 05:39:43;;;;;;;18.38;9.82;;;5.80;99.90;;;;;;5090226;28;20039;-46
2021/03/31 05:42:10;;;;;;;17.02;9.25;;;5.90;99.90;;;;;;5090714;28;20032;-44
2021/03/31 05:44:36;;;;;;;16.52;8.85;;;5.90;99.90;;;;;;5088994;28;20150;-48
2021/03/31 05:47:03;;;;;;;18.75;9.95;;;5.90;99.90;;;;;;5089981;28;20153;-46
2021/03/31 05:49:30;;;;;;;22.80;10.73;;;6.00;99.90;;;;;;5090307;28;20020;-45
2021/03/31 05:51:56;;;;;;;18.33;9.48;;;6.00;99.90;;;;;;5090413;28;20028;-46
2021/03/31 05:54:22;;;;;;;23.48;10.50;;;6.00;99.90;;;;;;5090356;28;20024;-44
2021/03/31 05:56:50;;;;;;;19.83;9.40;;;6.10;99.90;;;;;;5089944;28;20055;-44
2021/03/31 05:59:15;;;;;;;20.50;11.07;;;6.10;99.90;;;;;;5089874;28;20025;-44
2021/03/31 06:01:41;;;;;;;17.90;9.27;;;6.20;99.90;;;;;;5090362;28;20028;-45
2021/03/31 06:04:07;;;;;;;18.42;10.30;;;6.20;99.90;;;;;;5071921;28;20020;-44
2021/03/31 06:06:32;;;;;;;21.02;11.13;;;6.30;99.90;;;;;;5089929;28;20412;-44
2021/03/31 06:08:57;;;;;;;20.42;10.52;;;6.30;99.90;;;;;;5089890;28;20056;-45
2021/03/31 06:11:23;;;;;;;17.30;9.77;;;6.40;99.90;;;;;;5089926;28;20512;-44
2021/03/31 06:13:56;;;;;;;18.63;8.88;;;6.40;99.90;;;;;;5089785;28;20271;-44
2021/03/31 06:16:29;;;;;;;19.52;10.10;;;6.50;99.90;;;;;;5089418;28;20392;-45
2021/03/31 06:18:55;;;;;;;19.33;9.70;;;6.50;99.90;;;;;;5088787;28;20020;-43
2021/03/31 06:21:21;;;;;;;16.58;8.95;;;6.60;99.90;;;;;;5071812;28;20074;-44
2021/03/31 06:26:29;;;;;;;15.63;9.00;;;6.70;99.90;;;;;;5085583;28;20028;-44
2021/03/31 06:29:05;;;;;;;17.30;9.80;;;6.80;99.90;;;;;;5087514;28;20034;-44
2021/03/31 06:31:33;;;;;;;20.27;10.20;;;6.90;99.90;;;;;;5070997;28;20123;-44
2021/03/31 06:34:05;;;;;;;22.42;9.40;;;6.90;99.90;;;;;;5085129;28;20398;-48
2021/03/31 06:36:55;;;;;;;18.17;10.40;;;7.00;99.90;;;;;;5084455;28;20055;-45
2021/03/31 06:39:24;;;;;;;22.63;10.18;;;7.10;99.90;;;;;;5088850;28;20024;-44
2021/03/31 06:42:06;;;;;;;16.77;9.23;;;7.20;99.90;;;;;;5085424;28;20024;-45
2021/03/31 06:44:37;;;;;;;16.70;9.45;;;7.30;99.90;;;;;;5085127;28;20056;-44
2021/03/31 06:49:33;;;;;;;15.65;9.32;;;7.50;99.90;;;;;;5084735;28;20092;-45
2021/03/31 06:52:06;;;;;;;16.40;9.55;;;7.60;99.90;;;;;;5087124;28;20032;-45
2021/03/31 06:54:42;;;;;;;16.42;8.98;;;7.70;99.90;;;;;;5069032;28;20500;-45
2021/03/31 06:57:07;;;;;;;15.43;8.80;;;7.80;99.90;;;;;;5084291;28;20024;-45
2021/03/31 06:59:34;;;;;;;18.15;9.52;;;7.90;99.90;;;;;;5093197;28;20114;-45
2021/03/31 07:02:05;;;;;;;15.70;9.82;;;8.00;99.90;;;;;;5106839;28;20170;-45
2021/03/31 07:04:31;;;;;;;18.55;9.82;;;8.10;99.90;;;;;;5084070;28;20016;-45
2021/03/31 07:07:49;;;;;;;16.35;10.07;;;8.20;99.90;;;;;;5092600;28;20024;-48
2021/03/31 07:10:22;;;;;;;18.40;10.02;;;8.40;99.90;;;;;;5085126;28;20046;-45
2021/03/31 07:12:48;;;;;;;26.25;12.23;;;8.50;99.90;;;;;;5088730;28;20521;-45
2021/03/31 07:15:22;;;;;;;19.83;11.25;;;8.70;99.90;;;;;;5088086;28;20020;-45
2021/03/31 07:17:56;;;;;;;20.85;11.15;;;8.80;99.90;;;;;;5089575;28;20012;-45
2021/03/31 07:20:23;;;;;;;22.58;13.43;;;9.00;99.90;;;;;;5108829;28;20035;-48
2021/03/31 07:22:49;;;;;;;20.98;12.55;;;9.20;99.90;;;;;;5086873;28;20104;-45
2021/03/31 07:25:16;;;;;;;19.38;11.82;;;9.30;99.90;;;;;;5087770;28;20454;-45
2021/03/31 07:27:44;;;;;;;20.88;11.23;;;9.50;99.90;;;;;;5095333;28;20035;-45
2021/03/31 07:30:13;;;;;;;25.30;12.88;;;9.70;99.90;;;;;;5088279;28;20081;-46
2021/03/31 07:32:48;;;;;;;30.17;13.57;;;9.90;99.90;;;;;;5088646;28;20028;-45
2021/03/31 07:35:15;;;;;;;22.70;12.60;;;10.00;99.90;;;;;;5087603;28;20184;-45
2021/03/31 07:37:42;;;;;;;22.30;11.63;;;10.20;99.90;;;;;;5069763;28;20032;-46
2021/03/31 07:40:10;;;;;;;31.58;12.80;;;10.30;99.90;;;;;;5088107;28;20036;-45
2021/03/31 07:42:40;;;;;;;18.63;10.88;;;10.50;98.90;;;;;;5088137;28;20107;-45
2021/03/31 07:45:09;;;;;;;28.55;12.60;;;10.70;98.70;;;;;;5088296;28;20062;-45
2021/03/31 07:47:35;;;;;;;19.98;12.20;;;10.90;96.90;;;;;;5088185;28;20062;-45
2021/03/31 07:50:02;;;;;;;24.70;11.60;;;11.00;96.50;;;;;;5088301;28;20539;-46
2021/03/31 07:52:54;;;;;;;31.92;13.70;;;11.20;95.40;;;;;;5087981;28;20107;-46
2021/03/31 07:55:36;;;;;;;31.38;13.85;;;11.40;93.80;;;;;;5087165;28;20026;-45
2021/03/31 07:58:13;;;;;;;27.77;14.07;;;11.70;93.00;;;;;;5088030;28;20546;-45
2021/03/31 08:00:45;;;;;;;33.70;13.70;;;12.00;91.40;;;;;;5088321;28;20273;-46
2021/03/31 08:03:15;;;;;;;26.52;12.93;;;12.20;90.10;;;;;;5087970;28;20158;-46
2021/03/31 08:06:04;;;;;;;34.63;15.70;;;12.50;89.40;;;;;;5068946;28;20039;-46
2021/03/31 08:08:33;;;;;;;37.22;13.75;;;13.40;85.00;;;;;;5087749;28;20250;-46
2021/03/31 08:10:59;;;;;;;27.52;12.50;;;14.10;79.50;;;;;;5087417;28;20066;-45
2021/03/31 08:13:25;;;;;;;31.27;14.10;;;14.90;74.70;;;;;;5088046;28;20060;-48
2021/03/31 08:15:51;;;;;;;28.08;12.38;;;15.30;72.20;;;;;;5087315;28;20032;-48
2021/03/31 08:18:16;;;;;;;30.52;12.43;;;15.80;70.00;;;;;;5087496;28;20312;-48
2021/03/31 08:20:45;;;;;;;29.02;12.90;;;16.30;67.80;;;;;;5087614;28;20028;-47
2021/03/31 08:23:11;;;;;;;20.52;11.10;;;16.90;64.30;;;;;;5087676;28;20694;-46
2021/03/31 08:25:37;;;;;;;28.17;13.82;;;17.80;61.60;;;;;;5086273;28;20036;-47
2021/03/31 08:28:08;;;;;;;28.85;12.80;;;18.90;57.70;;;;;;5069525;28;20144;-48
2021/03/31 08:30:37;;;;;;;22.65;12.75;;;20.10;54.70;;;;;;5087836;28;20039;-48
2021/03/31 08:33:05;;;;;;;17.42;11.05;;;21.40;51.00;;;;;;5087928;28;20027;-49
2021/03/31 08:35:31;;;;;;;23.90;12.00;;;23.00;46.70;;;;;;5086942;28;20039;-46
2021/03/31 08:37:58;;;;;;;27.90;13.32;;;24.70;43.30;;;;;;5087817;28;20124;-46
2021/03/31 08:40:32;;;;;;;17.23;10.88;;;26.00;39.10;;;;;;5087207;28;20073;-46
2021/03/31 08:43:01;;;;;;;19.83;10.65;;;27.40;37.90;;;;;;5091103;28;20032;-46
2021/03/31 08:45:29;;;;;;;14.88;9.23;;;28.70;35.90;;;;;;5088018;28;20393;-47
2021/03/31 08:47:57;;;;;;;14.48;8.50;;;29.80;35.20;;;;;;5091271;28;20054;-46
2021/03/31 08:50:29;;;;;;;14.35;8.90;;;30.70;34.10;;;;;;5091550;28;20020;-47
2021/03/31 08:53:01;;;;;;;11.80;7.72;;;31.60;31.60;;;;;;5091555;28;20024;-47
2021/03/31 08:55:32;;;;;;;11.45;8.18;;;32.60;31.30;;;;;;5090501;28;20030;-47
2021/03/31 08:58:00;;;;;;;18.10;8.63;;;31.90;28.90;;;;;;5091540;28;20112;-47
2021/03/31 09:00:27;;;;;;;14.48;6.40;;;32.60;29.20;;;;;;5091400;28;20177;-49
2021/03/31 09:03:03;;;;;;;11.45;6.90;;;32.90;28.30;;;;;;5091039;28;20036;-47
2021/03/31 09:05:29;;;;;;;9.13;5.70;;;32.40;27.30;;;;;;5088421;28;20122;-49
2021/03/31 09:07:59;;;;;;;8.30;5.55;;;32.80;27.20;;;;;;5091217;28;20103;-47
2021/03/31 09:10:25;;;;;;;10.65;5.97;;;32.70;27.30;;;;;;5083039;28;20032;-47
2021/03/31 09:12:50;;;;;;;7.97;5.93;;;33.00;27.10;;;;;;5076878;28;20633;-46
2021/03/31 09:15:16;;;;;;;9.93;6.72;;;33.90;27.80;;;;;;5077481;28;20023;-47
2021/03/31 09:17:43;;;;;;;8.75;6.90;;;34.30;25.90;;;;;;5077361;28;20051;-47
2021/03/31 09:20:10;;;;;;;11.90;6.88;;;33.00;26.90;;;;;;5073563;28;20020;-47
2021/03/31 09:22:36;;;;;;;8.35;6.22;;;33.50;27.30;;;;;;5076293;28;20033;-48
2021/03/31 09:25:09;;;;;;;7.10;5.50;;;33.60;27.30;;;;;;5077203;28;20268;-47
2021/03/31 09:27:38;;;;;;;9.90;6.15;;;34.30;27.70;;;;;;5078044;28;20369;-50
2021/03/31 09:30:13;;;;;;;11.23;7.20;;;34.00;27.20;;;;;;5083339;28;20028;-47
2021/03/31 09:32:48;;;;;;;11.52;6.93;;;34.00;27.20;;;;;;5083621;28;20043;-47
2021/03/31 09:35:16;;;;;;;12.93;7.22;;;35.80;26.50;;;;;;5084509;28;20116;-46
2021/03/31 09:37:43;;;;;;;14.45;7.82;;;36.70;25.60;;;;;;5088964;28;20024;-49
2021/03/31 09:40:16;;;;;;;9.27;7.65;;;36.40;24.60;;;;;;5087795;28;20573;-46
2021/03/31 09:42:43;;;;;;;11.23;8.45;;;33.30;25.80;;;;;;5089010;28;20037;-45
2021/03/31 09:45:09;;;;;;;13.07;7.90;;;31.00;27.10;;;;;;5088373;28;20323;-47
2021/03/31 09:47:37;;;;;;;11.95;7.90;;;32.10;28.00;;;;;;5088066;28;20608;-47
2021/03/31 09:50:08;;;;;;;9.02;5.90;;;32.40;27.50;;;;;;5088916;28;20032;-45
2021/03/31 09:52:34;;;;;;;11.05;7.60;;;33.50;28.00;;;;;;5088662;28;20463;-47
2021/03/31 09:55:07;;;;;;;8.32;6.80;;;34.80;25.30;;;;;;5087505;28;20046;-47
2021/03/31 09:57:36;;;;;;;8.85;7.57;;;34.50;26.60;;;;;;5088423;28;20046;-45
2021/03/31 10:00:06;;;;;;;;;;;35.70;25.90;;;;;;5088731;28;20028;-46
2021/03/31 10:02:32;;;;;;;11.43;7.88;;;34.60;26.80;;;;;;5088514;28;19908;-46
2021/03/31 10:05:03;;;;;;;9.52;8.00;;;35.10;26.10;;;;;;5087832;28;20073;-46
2021/03/31 10:07:28;;;;;;;12.30;6.88;;;36.00;25.40;;;;;;5089091;28;20578;-47
2021/03/31 10:09:54;;;;;;;7.60;5.82;;;36.10;25.20;;;;;;5087132;28;20031;-46
2021/03/31 10:12:25;;;;;;;6.82;5.35;;;37.60;25.30;;;;;;5071291;28;20033;-46
2021/03/31 10:14:52;;;;;;;8.13;6.20;;;37.90;25.30;;;;;;5083543;28;20032;-46
2021/03/31 10:17:24;;;;;;;10.40;5.05;;;38.10;24.90;;;;;;5086464;28;20035;-46
2021/03/31 10:19:50;;;;;;;11.25;6.25;;;38.30;26.00;;;;;;5067989;28;20024;-46
2021/03/31 10:22:17;;;;;;;7.53;4.57;;;38.00;25.10;;;;;;5085976;28;20465;-45
2021/03/31 10:24:47;;;;;;;7.68;5.75;;;37.60;24.80;;;;;;5066743;28;20125;-46
2021/03/31 10:27:17;;;;;;;9.02;5.82;;;37.10;25.60;;;;;;5083747;28;20028;-45
2021/03/31 10:29:47;;;;;;;7.75;5.50;;;37.70;25.00;;;;;;5086308;28;20654;-45
2021/03/31 10:32:16;;;;;;;8.55;6.00;;;38.10;25.50;;;;;;5078663;28;20047;-46
2021/03/31 10:34:45;;;;;;;9.00;6.15;;;37.60;25.10;;;;;;5066943;28;20055;-45
2021/03/31 10:48:19;;;;;;;5.40;4.90;;;39.00;25.40;;;;;;5067898;28;20031;-46
2021/03/31 10:53:11;;;;;;;8.65;6.55;;;38.70;25.50;;;;;;5082737;28;20357;-46
2021/03/31 10:55:40;;;;;;;10.52;5.75;;;38.00;25.80;;;;;;5074762;28;20303;-48
2021/03/31 10:58:06;;;;;;;9.60;7.05;;;37.80;26.20;;;;;;5076798;28;20030;-45
2021/03/31 11:00:34;;;;;;;10.13;7.07;;;37.80;25.70;;;;;;5077642;28;20424;-48
2021/03/31 11:03:00;;;;;;;11.57;6.47;;;37.50;25.00;;;;;;5076057;28;20021;-48
2021/03/31 11:05:29;;;;;;;12.82;5.70;;;37.90;26.00;;;;;;5077037;28;20125;-47
2021/03/31 11:07:54;;;;;;;17.60;7.33;;;38.00;26.20;;;;;;5086281;28;20032;-45
2021/03/31 11:10:20;;;;;;;13.98;7.15;;;37.20;25.20;;;;;;5085339;28;20715;-46
2021/03/31 11:12:45;;;;;;;11.15;7.55;;;37.10;25.40;;;;;;5083873;28;20047;-47
2021/03/31 11:15:14;;;;;;;10.05;6.50;;;37.20;25.60;;;;;;5086751;28;20389;-45
2021/03/31 11:17:59;;;;;;;;;;;37.00;26.10;;;;;;5080417;28;20418;-46
2021/03/31 11:25:51;;;;;;;11.30;7.32;;;37.10;25.70;;;;;;5074551;28;20107;-49
2021/03/31 11:28:18;;;;;;;10.88;4.93;;;36.40;24.70;;;;;;5086463;28;20098;-46
2021/03/31 11:30:44;;;;;;;8.63;6.15;;;35.70;25.80;;;;;;5086243;28;20028;-48
2021/03/31 11:33:10;;;;;;;7.63;4.45;;;35.70;24.90;;;;;;5086036;28;20259;-46
2021/03/31 11:35:36;;;;;;;8.75;6.13;;;35.90;26.50;;;;;;5085578;28;20036;-48
2021/03/31 11:38:02;;;;;;;9.20;5.65;;;36.50;26.20;;;;;;5079380;28;20034;-46
2021/03/31 11:40:27;;;;;;;8.95;6.22;;;36.80;25.90;;;;;;5086644;28;20346;-48
2021/03/31 11:42:53;;;;;;;8.02;6.03;;;35.70;26.00;;;;;;5086990;28;20111;-46
2021/03/31 11:45:19;;;;;;;11.68;8.23;;;35.70;27.00;;;;;;5084703;28;20016;-46
2021/03/31 11:47:44;;;;;;;10.45;7.30;;;35.00;25.90;;;;;;5080818;28;20028;-45
2021/03/31 11:50:11;;;;;;;8.90;6.20;;;35.00;25.50;;;;;;5088574;28;20024;-46
2021/03/31 11:52:38;;;;;;;13.50;7.13;;;35.10;26.70;;;;;;5069489;28;20474;-46
2021/03/31 11:55:05;;;;;;;11.57;6.88;;;35.40;26.70;;;;;;5065921;28;20064;-46
2021/03/31 11:57:30;;;;;;;8.25;6.47;;;35.00;27.60;;;;;;5085666;28;20036;-45
2021/03/31 11:59:56;;;;;;;8.48;5.63;;;35.20;27.60;;;;;;5087875;28;20470;-48
2021/03/31 12:02:22;;;;;;;10.38;7.28;;;35.70;26.30;;;;;;5087900;28;20069;-45
2021/03/31 12:04:49;;;;;;;11.63;7.55;;;35.60;26.80;;;;;;5088049;28;20581;-46
2021/03/31 12:07:15;;;;;;;13.52;7.22;;;35.40;27.00;;;;;;5087755;28;20146;-49
2021/03/31 12:09:41;;;;;;;12.43;8.32;;;35.70;25.80;;;;;;5087925;28;20051;-46
2021/03/31 12:12:09;;;;;;;9.70;7.68;;;35.40;26.70;;;;;;5087542;28;20494;-44
2021/03/31 12:14:35;;;;;;;13.65;8.25;;;35.60;25.30;;;;;;5087662;28;20081;-45
2021/03/31 12:17:01;;;;;;;16.55;8.20;;;35.40;27.00;;;;;;5086775;28;20162;-47
2021/03/31 12:19:26;;;;;;;12.98;7.78;;;34.60;26.40;;;;;;5087580;28;20462;-47
2021/03/31 12:21:53;;;;;;;12.95;7.85;;;34.10;27.30;;;;;;5087759;28;20036;-47
2021/03/31 12:24:19;;;;;;;11.77;8.30;;;33.50;27.50;;;;;;5087531;28;20384;-48
2021/03/31 12:26:45;;;;;;;11.90;7.30;;;32.80;28.50;;;;;;5087251;28;20020;-46
2021/03/31 12:29:10;;;;;;;11.32;7.30;;;32.40;28.20;;;;;;5087707;28;20028;-46
2021/03/31 12:31:36;;;;;;;12.35;8.10;;;32.00;27.50;;;;;;5087474;28;20122;-48
2021/03/31 12:34:02;;;;;;;9.93;8.10;;;31.70;28.90;;;;;;5088016;28;20067;-47
2021/03/31 12:36:28;;;;;;;14.43;9.48;;;31.50;29.10;;;;;;5087164;28;20389;-48
2021/03/31 12:38:54;;;;;;;10.13;7.43;;;31.40;28.30;;;;;;5087549;28;20027;-47
2021/03/31 12:41:19;;;;;;;13.93;8.40;;;31.10;28.90;;;;;;5087189;28;20027;-47
2021/03/31 12:43:45;;;;;;;15.60;9.57;;;30.70;29.50;;;;;;5087599;28;20032;-46
2021/03/31 12:46:10;;;;;;;11.50;7.57;;;30.10;27.90;;;;;;5086986;28;20036;-46
2021/03/31 12:48:37;;;;;;;13.10;7.95;;;30.00;30.00;;;;;;5087642;28;20044;-46
2021/03/31 12:51:06;;;;;;;13.07;7.28;;;30.00;29.90;;;;;;5087871;28;20474;-47
2021/03/31 12:53:48;;;;;;;13.32;8.40;;;29.90;30.40;;;;;;5087454;28;20040;-46
2021/03/31 12:56:13;;;;;;;13.10;8.25;;;30.00;29.20;;;;;;5086757;28;20107;-46
2021/03/31 12:58:42;;;;;;;16.92;8.75;;;29.50;30.80;;;;;;5087350;28;20561;-46
2021/03/31 13:01:14;;;;;;;14.35;8.90;;;29.50;28.50;;;;;;5087432;28;20487;-47
2021/03/31 13:03:40;;;;;;;15.18;8.70;;;29.20;30.20;;;;;;5087430;28;20092;-46
2021/03/31 13:06:06;;;;;;;12.00;7.78;;;28.90;28.60;;;;;;5068553;28;20050;-47
2021/03/31 13:08:31;;;;;;;10.90;7.38;;;28.80;29.30;;;;;;5087161;28;20024;-46
2021/03/31 13:10:57;;;;;;;16.25;7.45;;;29.10;30.80;;;;;;5087420;28;20478;-46
2021/03/31 13:13:49;;;;;;;13.27;7.32;;;28.90;28.50;;;;;;5087294;28;20035;-46